Time;durP1;ratioP1;P1;durP2;ratioP2;P2;SDS_P1;SDS_P2;PMS_P1;PMS_P2;Temp;Humidity;BMP_temperature;BMP_pressure;BME280_temperature;BME280_humidity;BME280_pressure;Samples;Min_cycle;Max_cycle;Signal;HPM_P1;HPM_P2
2021/10/12 00:01:02;;;;;;;15.82;6.20;;;13.70;99.90;;;;;;5068138;28;20380;-76
2021/10/12 00:03:27;;;;;;;13.63;6.60;;;13.70;99.90;;;;;;5067562;28;20025;-74
2021/10/12 00:05:53;;;;;;;14.48;6.82;;;13.60;99.90;;;;;;5062041;28;20082;-72
2021/10/12 00:08:19;;;;;;;17.73;7.78;;;13.60;99.90;;;;;;5060124;28;20029;-74
2021/10/12 00:10:44;;;;;;;16.42;6.70;;;13.50;99.90;;;;;;5065292;28;20535;-72
2021/10/12 00:13:10;;;;;;;17.13;7.35;;;13.60;99.90;;;;;;5063073;28;20017;-73
2021/10/12 00:15:36;;;;;;;21.85;7.35;;;13.50;99.90;;;;;;5067786;28;20017;-72
2021/10/12 00:18:02;;;;;;;17.75;7.15;;;13.50;99.90;;;;;;5066258;28;20020;-74
2021/10/12 00:20:28;;;;;;;14.40;6.60;;;13.50;99.90;;;;;;5063983;28;20560;-75
2021/10/12 00:22:53;;;;;;;20.17;7.15;;;13.50;99.90;;;;;;5065082;28;20027;-73
2021/10/12 00:25:19;;;;;;;16.00;7.25;;;13.50;99.90;;;;;;5073364;28;20028;-77
2021/10/12 00:27:44;;;;;;;21.58;7.00;;;13.50;99.90;;;;;;5065475;28;20025;-71
2021/10/12 00:30:11;;;;;;;17.40;7.05;;;13.50;99.90;;;;;;5072013;28;20044;-71
2021/10/12 00:32:36;;;;;;;15.73;7.25;;;13.50;99.90;;;;;;5065038;28;20029;-76
2021/10/12 00:35:03;;;;;;;22.77;8.27;;;13.50;99.90;;;;;;5074670;28;20028;-79
2021/10/12 00:37:29;;;;;;;16.58;6.68;;;13.50;99.90;;;;;;5062418;28;20035;-77
2021/10/12 00:39:54;;;;;;;17.38;6.78;;;13.50;99.90;;;;;;5063919;28;20025;-78
2021/10/12 00:42:20;;;;;;;19.83;7.93;;;13.50;99.90;;;;;;5070951;28;20111;-73
2021/10/12 00:44:46;;;;;;;19.08;8.05;;;13.50;99.90;;;;;;5074434;28;20024;-75
2021/10/12 00:47:12;;;;;;;16.17;7.05;;;13.40;99.90;;;;;;5061301;28;20028;-84
2021/10/12 00:49:37;;;;;;;17.88;7.40;;;13.40;99.90;;;;;;5063864;28;20040;-78
2021/10/12 00:52:05;;;;;;;14.30;6.22;;;13.40;99.90;;;;;;5056394;28;20075;-80
2021/10/12 00:54:30;;;;;;;17.17;6.38;;;13.40;99.90;;;;;;5067339;28;20032;-72
2021/10/12 00:56:56;;;;;;;17.63;6.75;;;13.40;99.90;;;;;;5071429;28;20024;-73
2021/10/12 00:59:22;;;;;;;18.13;6.30;;;13.40;99.90;;;;;;5075898;28;20036;-73
2021/10/12 01:01:48;;;;;;;27.17;7.60;;;13.30;99.90;;;;;;5070115;28;20103;-73
2021/10/12 01:04:14;;;;;;;17.58;7.03;;;13.30;99.90;;;;;;5069014;28;20021;-72
2021/10/12 01:06:40;;;;;;;17.60;6.40;;;13.30;99.90;;;;;;5073780;28;20552;-72
2021/10/12 01:09:06;;;;;;;18.13;6.60;;;13.40;99.90;;;;;;5070478;28;20033;-74
2021/10/12 01:11:35;;;;;;;12.35;6.40;;;13.30;99.90;;;;;;5063289;28;20385;-73
2021/10/12 01:14:02;;;;;;;22.83;7.50;;;13.30;99.90;;;;;;5068147;28;20028;-72
2021/10/12 01:16:28;;;;;;;18.40;6.88;;;13.40;99.90;;;;;;5076147;28;20016;-72
2021/10/12 01:19:05;;;;;;;14.80;6.82;;;13.30;99.90;;;;;;5067296;28;20023;-72
2021/10/12 01:21:39;;;;;;;16.02;7.13;;;13.30;99.90;;;;;;5073366;28;20031;-71
2021/10/12 01:24:05;;;;;;;17.70;6.53;;;13.40;99.90;;;;;;5066545;28;20033;-73
2021/10/12 01:26:32;;;;;;;13.75;5.68;;;13.40;99.90;;;;;;5072704;28;20043;-71
2021/10/12 01:28:58;;;;;;;18.73;6.28;;;13.40;99.90;;;;;;5069131;28;20032;-72
2021/10/12 01:31:25;;;;;;;15.00;6.25;;;13.40;99.90;;;;;;5060534;28;20016;-72
2021/10/12 01:33:51;;;;;;;17.70;7.05;;;13.40;99.90;;;;;;5068600;28;20396;-72
2021/10/12 01:36:17;;;;;;;18.98;6.65;;;13.30;99.90;;;;;;5069396;28;20029;-72
2021/10/12 01:38:43;;;;;;;18.33;6.13;;;13.30;99.90;;;;;;5065159;28;20027;-71
2021/10/12 01:41:09;;;;;;;18.02;7.18;;;13.30;99.90;;;;;;5058280;28;20025;-71
2021/10/12 01:43:35;;;;;;;22.67;7.47;;;13.30;99.90;;;;;;5068292;28;20485;-74
2021/10/12 01:46:02;;;;;;;17.95;5.75;;;13.30;99.90;;;;;;5067744;28;20104;-71
2021/10/12 01:48:28;;;;;;;18.98;6.25;;;13.30;99.90;;;;;;5065623;28;20410;-71
2021/10/12 01:50:54;;;;;;;16.95;6.03;;;13.30;99.90;;;;;;5065289;28;20029;-72
2021/10/12 01:53:20;;;;;;;15.48;6.45;;;13.40;99.90;;;;;;5067317;28;20028;-71
2021/10/12 01:55:46;;;;;;;14.55;6.35;;;13.30;99.90;;;;;;5064929;28;20028;-71
2021/10/12 01:58:11;;;;;;;15.90;6.50;;;13.30;99.90;;;;;;5066622;28;20025;-71
2021/10/12 02:00:37;;;;;;;18.90;6.47;;;13.30;99.90;;;;;;5072180;28;20119;-71
2021/10/12 02:03:03;;;;;;;15.82;6.40;;;13.30;99.90;;;;;;5067241;28;20013;-71
2021/10/12 02:05:29;;;;;;;16.73;6.57;;;13.30;99.90;;;;;;5071967;28;20472;-71
2021/10/12 02:07:54;;;;;;;24.20;6.95;;;13.30;99.90;;;;;;5066969;28;20028;-72
2021/10/12 02:10:20;;;;;;;15.98;6.93;;;13.30;99.90;;;;;;5063570;28;20033;-71
2021/10/12 02:12:46;;;;;;;19.67;6.70;;;13.30;99.90;;;;;;5070212;28;20399;-71
2021/10/12 02:15:12;;;;;;;13.18;7.05;;;13.30;99.90;;;;;;5078953;28;20043;-71
2021/10/12 02:17:38;;;;;;;15.63;6.90;;;13.30;99.90;;;;;;5074827;28;20024;-73
2021/10/12 02:20:08;;;;;;;16.00;6.85;;;13.30;99.90;;;;;;5065183;28;20398;-72
2021/10/12 02:22:34;;;;;;;13.80;6.32;;;13.30;99.90;;;;;;5075867;28;20029;-71
2021/10/12 02:25:00;;;;;;;17.77;6.82;;;13.20;99.90;;;;;;5073812;28;20368;-71
2021/10/12 02:27:26;;;;;;;18.02;6.07;;;13.20;99.90;;;;;;5073012;28;20400;-71
2021/10/12 02:29:52;;;;;;;16.88;7.80;;;13.20;99.90;;;;;;5066184;28;20080;-71
2021/10/12 02:32:18;;;;;;;19.25;7.03;;;13.20;99.90;;;;;;5068151;28;20067;-71
2021/10/12 02:34:45;;;;;;;23.08;7.05;;;13.30;99.90;;;;;;5078762;28;20054;-71
2021/10/12 02:37:10;;;;;;;16.45;6.70;;;13.20;99.90;;;;;;5077898;28;20013;-71
2021/10/12 02:39:36;;;;;;;18.83;7.47;;;13.20;99.90;;;;;;5068425;28;20017;-71
2021/10/12 02:42:02;;;;;;;16.17;7.22;;;13.20;99.90;;;;;;5067143;28;20105;-72
2021/10/12 02:44:28;;;;;;;15.50;7.18;;;13.20;99.90;;;;;;5065571;28;20031;-71
2021/10/12 02:46:54;;;;;;;14.75;6.88;;;13.10;99.90;;;;;;5075702;28;20020;-71
2021/10/12 02:49:19;;;;;;;17.35;6.90;;;13.20;99.90;;;;;;5069419;28;20033;-74
2021/10/12 02:51:45;;;;;;;17.85;6.95;;;13.10;99.90;;;;;;5061751;28;20413;-71
2021/10/12 02:54:10;;;;;;;19.45;7.43;;;13.10;99.90;;;;;;5071947;28;20066;-71
2021/10/12 02:56:36;;;;;;;12.20;6.43;;;13.20;99.90;;;;;;5062812;28;20465;-80
2021/10/12 02:59:02;;;;;;;14.73;6.55;;;13.20;99.90;;;;;;5068545;28;20488;-71
2021/10/12 03:01:28;;;;;;;17.65;6.72;;;13.20;99.90;;;;;;5067223;28;20028;-72
2021/10/12 03:03:54;;;;;;;17.30;7.50;;;13.10;99.90;;;;;;5064297;28;20109;-72
2021/10/12 03:06:20;;;;;;;19.90;7.60;;;13.10;99.90;;;;;;5071353;28;20477;-72
2021/10/12 03:08:46;;;;;;;16.10;7.22;;;13.10;99.90;;;;;;5073100;28;20020;-71
2021/10/12 03:11:12;;;;;;;21.20;7.28;;;13.10;99.90;;;;;;5060758;28;20036;-71
2021/10/12 03:13:38;;;;;;;17.05;7.03;;;13.10;99.90;;;;;;5066890;28;20102;-72
2021/10/12 03:16:04;;;;;;;15.70;7.65;;;13.10;99.90;;;;;;5068448;28;20125;-71
2021/10/12 03:18:31;;;;;;;20.70;7.10;;;13.10;99.90;;;;;;5070986;28;20476;-83
2021/10/12 03:20:58;;;;;;;23.02;7.70;;;13.20;99.90;;;;;;5070902;28;20031;-78
2021/10/12 03:23:23;;;;;;;15.02;8.38;;;13.20;99.90;;;;;;5071532;28;20384;-83
2021/10/12 03:25:49;;;;;;;21.98;7.75;;;13.10;99.90;;;;;;5071600;28;20107;-82
2021/10/12 03:28:15;;;;;;;17.45;6.65;;;13.10;99.90;;;;;;5068664;28;20040;-83
2021/10/12 03:30:40;;;;;;;18.98;7.45;;;13.10;99.90;;;;;;5074258;28;20028;-79
2021/10/12 03:33:06;;;;;;;18.70;7.13;;;13.10;99.90;;;;;;5071050;28;20048;-84
2021/10/12 03:35:35;;;;;;;23.00;7.78;;;13.10;99.90;;;;;;5070833;28;20052;-80
2021/10/12 03:38:00;;;;;;;12.77;6.82;;;13.10;99.90;;;;;;5064855;28;20105;-82
2021/10/12 03:40:26;;;;;;;20.40;6.68;;;13.10;99.90;;;;;;5071444;28;20031;-84
2021/10/12 03:42:52;;;;;;;21.17;7.32;;;13.10;99.90;;;;;;5067257;28;20053;-84
2021/10/12 03:45:19;;;;;;;16.10;6.05;;;13.10;99.90;;;;;;5070139;28;20036;-74
2021/10/12 03:47:45;;;;;;;16.95;6.30;;;13.10;99.90;;;;;;5074330;28;20028;-81
2021/10/12 03:50:10;;;;;;;19.48;6.40;;;13.10;99.90;;;;;;5070417;28;20398;-84
2021/10/12 03:52:36;;;;;;;14.63;6.25;;;13.10;99.90;;;;;;5071412;28;20035;-78
2021/10/12 03:55:03;;;;;;;18.10;6.50;;;13.00;99.90;;;;;;5060345;28;20021;-82
2021/10/12 03:57:28;;;;;;;15.38;5.90;;;13.00;99.90;;;;;;5060196;28;20824;-81
2021/10/12 03:59:54;;;;;;;28.35;6.93;;;13.10;99.90;;;;;;5069660;28;20029;-81
2021/10/12 04:02:19;;;;;;;14.95;5.78;;;13.10;99.90;;;;;;5066067;28;20032;-75
2021/10/12 04:04:45;;;;;;;21.30;6.68;;;13.10;99.90;;;;;;5065258;28;20037;-81
2021/10/12 04:07:11;;;;;;;13.35;6.47;;;13.00;99.90;;;;;;5068984;28;20032;-77
2021/10/12 04:09:37;;;;;;;12.82;6.75;;;13.10;99.90;;;;;;5066254;28;20423;-82
2021/10/12 04:12:02;;;;;;;14.10;5.97;;;13.10;99.90;;;;;;5057266;28;20025;-81
2021/10/12 04:14:28;;;;;;;19.08;6.82;;;13.10;99.90;;;;;;5073354;28;20032;-80
2021/10/12 04:16:54;;;;;;;20.58;7.65;;;13.20;99.90;;;;;;5069725;28;20013;-79
2021/10/12 04:19:19;;;;;;;17.08;6.40;;;13.10;99.90;;;;;;5075598;28;20032;-78
2021/10/12 04:21:45;;;;;;;20.60;7.20;;;13.10;99.90;;;;;;5066471;28;20377;-79
2021/10/12 04:24:10;;;;;;;23.45;7.32;;;13.10;99.90;;;;;;5071430;28;20067;-79
2021/10/12 04:26:38;;;;;;;21.40;8.13;;;13.20;99.90;;;;;;5075449;28;20489;-74
2021/10/12 04:29:04;;;;;;;21.48;7.45;;;13.20;99.90;;;;;;5063576;28;20029;-82
2021/10/12 04:31:30;;;;;;;20.58;7.18;;;13.20;99.90;;;;;;5062144;28;20031;-76
2021/10/12 04:33:56;;;;;;;16.83;6.80;;;13.20;99.90;;;;;;5073773;28;20476;-81
2021/10/12 04:36:22;;;;;;;16.15;7.05;;;13.20;99.90;;;;;;5070905;28;20127;-81
2021/10/12 04:38:47;;;;;;;20.65;6.80;;;13.20;99.90;;;;;;5073115;28;20103;-76
2021/10/12 04:41:13;;;;;;;18.60;7.70;;;13.20;99.90;;;;;;5064572;28;20021;-76
2021/10/12 04:43:40;;;;;;;18.40;7.40;;;13.30;99.90;;;;;;5065626;28;20060;-83
2021/10/12 04:46:05;;;;;;;19.58;7.05;;;13.30;99.90;;;;;;5069200;28;20013;-81
2021/10/12 04:48:31;;;;;;;24.02;8.60;;;13.30;99.90;;;;;;5064085;28;20366;-81
2021/10/12 04:50:57;;;;;;;15.63;7.70;;;13.20;99.90;;;;;;5071823;28;20036;-79
2021/10/12 04:53:23;;;;;;;22.83;8.88;;;13.20;99.90;;;;;;5064134;28;20088;-86
2021/10/12 04:55:49;;;;;;;28.85;9.00;;;13.20;99.90;;;;;;5063109;28;20029;-80
2021/10/12 04:58:14;;;;;;;17.15;9.13;;;13.30;99.90;;;;;;5063897;28;20025;-78
2021/10/12 05:00:40;;;;;;;23.48;9.43;;;13.20;99.90;;;;;;5073236;28;20031;-75
2021/10/12 05:03:05;;;;;;;21.52;9.35;;;13.20;99.90;;;;;;5064905;28;20045;-76
2021/10/12 05:05:32;;;;;;;19.80;9.65;;;13.20;99.90;;;;;;5062653;28;20107;-77
2021/10/12 05:07:57;;;;;;;24.15;10.05;;;13.20;99.90;;;;;;5068939;28;20020;-77
2021/10/12 05:10:24;;;;;;;20.70;8.57;;;13.20;99.90;;;;;;5068405;28;20444;-75
2021/10/12 05:12:49;;;;;;;21.63;9.93;;;13.20;99.90;;;;;;5064326;28;20054;-75
2021/10/12 05:15:21;;;;;;;27.55;10.45;;;13.20;99.90;;;;;;5073222;28;20469;-76
2021/10/12 05:17:48;;;;;;;21.05;9.48;;;13.10;99.90;;;;;;5064161;28;20066;-78
2021/10/12 05:20:14;;;;;;;26.00;10.40;;;13.20;99.90;;;;;;5075357;28;20373;-79
2021/10/12 05:22:40;;;;;;;22.67;9.57;;;13.20;99.90;;;;;;5063426;28;20020;-76
2021/10/12 05:25:06;;;;;;;20.90;9.63;;;13.20;99.90;;;;;;5069241;28;20036;-81
2021/10/12 05:27:33;;;;;;;26.48;10.20;;;13.20;99.90;;;;;;5065723;28;20032;-81
2021/10/12 05:29:59;;;;;;;22.95;10.70;;;13.10;99.90;;;;;;5072525;28;20074;-77
2021/10/12 05:32:25;;;;;;;22.42;11.35;;;13.20;99.90;;;;;;5065571;28;20067;-73
2021/10/12 05:34:50;;;;;;;22.23;11.52;;;13.20;99.90;;;;;;5075379;28;20058;-73
2021/10/12 05:37:16;;;;;;;26.50;11.77;;;13.10;99.90;;;;;;5071932;28;20017;-74
2021/10/12 05:39:41;;;;;;;25.45;10.45;;;13.10;99.90;;;;;;5066743;28;20032;-77
2021/10/12 05:42:07;;;;;;;24.65;10.82;;;13.20;99.90;;;;;;5069702;28;20031;-78
2021/10/12 05:44:33;;;;;;;25.48;12.25;;;13.10;99.90;;;;;;5069871;28;20024;-75
2021/10/12 05:46:59;;;;;;;20.73;11.93;;;13.20;99.90;;;;;;5075951;28;20029;-74
2021/10/12 05:49:25;;;;;;;28.33;12.95;;;13.20;99.90;;;;;;5069933;28;20047;-74
2021/10/12 05:51:50;;;;;;;26.02;13.52;;;13.10;99.90;;;;;;5063547;28;20033;-75
2021/10/12 05:54:19;;;;;;;25.48;12.35;;;13.10;99.90;;;;;;5067620;28;20020;-72
2021/10/12 05:56:55;;;;;;;26.17;13.63;;;13.20;99.90;;;;;;5063308;28;20020;-76
2021/10/12 05:59:21;;;;;;;23.63;13.05;;;13.20;99.90;;;;;;5068976;28;20021;-76
2021/10/12 06:01:47;;;;;;;29.20;12.55;;;13.20;99.90;;;;;;5059320;28;20043;-78
2021/10/12 06:04:12;;;;;;;28.98;13.50;;;13.20;99.90;;;;;;5062629;28;20017;-75
2021/10/12 06:06:38;;;;;;;26.70;11.98;;;13.20;99.90;;;;;;5071019;28;20032;-72
2021/10/12 06:09:04;;;;;;;24.50;13.98;;;13.20;99.90;;;;;;5065978;28;20032;-73
2021/10/12 06:11:29;;;;;;;31.90;13.45;;;13.10;99.90;;;;;;5069063;28;20399;-72
2021/10/12 06:13:56;;;;;;;36.80;13.85;;;13.10;99.90;;;;;;5064251;28;20485;-73
2021/10/12 06:16:23;;;;;;;27.05;14.63;;;13.10;99.90;;;;;;5068975;28;20190;-72
2021/10/12 06:18:48;;;;;;;32.70;14.63;;;13.10;99.90;;;;;;5062562;28;20028;-74
2021/10/12 06:21:14;;;;;;;30.52;13.75;;;13.10;99.90;;;;;;5073489;28;20047;-73
2021/10/12 06:23:40;;;;;;;23.20;12.75;;;13.10;99.90;;;;;;5066208;28;20029;-73
2021/10/12 06:26:06;;;;;;;28.00;12.68;;;13.10;99.90;;;;;;5077372;28;20024;-75
2021/10/12 06:28:32;;;;;;;19.17;12.98;;;13.10;99.90;;;;;;5063460;28;20036;-77
2021/10/12 06:30:58;;;;;;;30.40;12.77;;;13.10;99.90;;;;;;5064728;28;20041;-76
2021/10/12 06:33:23;;;;;;;29.58;11.63;;;13.10;99.90;;;;;;5064192;28;20020;-78
2021/10/12 06:35:49;;;;;;;29.13;11.77;;;13.10;99.90;;;;;;5068790;28;20368;-75
2021/10/12 06:38:14;;;;;;;23.92;11.90;;;13.10;99.90;;;;;;5065913;28;20017;-80
2021/10/12 06:40:40;;;;;;;33.65;15.43;;;13.10;99.90;;;;;;5064613;28;20086;-80
2021/10/12 06:43:06;;;;;;;41.38;17.00;;;13.10;99.90;;;;;;5062267;28;20025;-78
2021/10/12 06:45:32;;;;;;;34.83;15.65;;;13.00;99.90;;;;;;5074175;28;20029;-76
2021/10/12 06:47:58;;;;;;;24.42;12.23;;;12.90;99.90;;;;;;5064780;28;20069;-74
2021/10/12 06:50:25;;;;;;;33.20;15.38;;;13.00;99.90;;;;;;5064312;28;20028;-75
2021/10/12 06:52:51;;;;;;;28.67;15.00;;;13.00;99.90;;;;;;5063068;28;20016;-76
2021/10/12 06:55:17;;;;;;;33.97;14.35;;;13.00;99.90;;;;;;5065089;28;20104;-73
2021/10/12 06:57:44;;;;;;;27.98;13.30;;;13.00;99.90;;;;;;5068728;28;20020;-77
2021/10/12 07:00:13;;;;;;;25.40;13.80;;;13.00;99.90;;;;;;5074646;28;20037;-75
2021/10/12 07:02:45;;;;;;;27.48;15.00;;;13.00;99.90;;;;;;5064608;28;20067;-75
2021/10/12 07:05:12;;;;;;;24.90;13.38;;;13.10;99.90;;;;;;5071659;28;20112;-72
2021/10/12 07:07:38;;;;;;;26.73;13.85;;;13.00;99.90;;;;;;5061206;28;20031;-72
2021/10/12 07:10:06;;;;;;;29.80;15.35;;;13.10;99.90;;;;;;5061047;28;20037;-74
2021/10/12 07:12:32;;;;;;;29.50;13.30;;;13.10;99.90;;;;;;5064451;28;20055;-74
2021/10/12 07:14:58;;;;;;;29.17;15.15;;;13.10;99.90;;;;;;5071667;28;20380;-75
2021/10/12 07:17:24;;;;;;;29.95;15.00;;;13.10;99.90;;;;;;5064193;28;20031;-76
2021/10/12 07:19:49;;;;;;;32.08;15.15;;;13.20;99.90;;;;;;5072725;28;20029;-77
2021/10/12 07:22:15;;;;;;;28.88;14.38;;;13.20;99.90;;;;;;5063281;28;20048;-72
2021/10/12 07:24:41;;;;;;;29.05;12.88;;;13.20;99.90;;;;;;5078679;28;20384;-73
2021/10/12 07:27:08;;;;;;;28.52;13.40;;;13.20;99.90;;;;;;5075923;28;20036;-75
2021/10/12 07:29:34;;;;;;;27.15;11.82;;;13.20;99.90;;;;;;5070778;28;20044;-73
2021/10/12 07:32:00;;;;;;;24.88;12.68;;;13.10;99.90;;;;;;5064787;28;20025;-77
2021/10/12 07:34:26;;;;;;;30.02;14.18;;;13.10;99.90;;;;;;5071006;28;20081;-73
2021/10/12 07:36:52;;;;;;;31.00;13.93;;;13.00;99.90;;;;;;5071602;28;20025;-73
2021/10/12 07:39:17;;;;;;;22.17;11.68;;;13.10;99.90;;;;;;5049291;28;20029;-75
2021/10/12 07:41:43;;;;;;;24.58;12.10;;;13.20;99.90;;;;;;5063813;28;20032;-75
2021/10/12 07:44:09;;;;;;;32.80;13.93;;;13.20;99.90;;;;;;5067580;28;20020;-78
2021/10/12 07:46:35;;;;;;;29.00;10.95;;;13.20;99.90;;;;;;5067111;28;20025;-78
2021/10/12 07:49:01;;;;;;;23.30;11.10;;;13.30;99.90;;;;;;5066299;28;20489;-78
2021/10/12 07:51:28;;;;;;;28.58;11.45;;;13.30;99.90;;;;;;5064462;28;20038;-79
2021/10/12 07:53:57;;;;;;;25.77;11.43;;;13.30;99.90;;;;;;5062942;28;20021;-80
2021/10/12 07:56:36;;;;;;;26.92;11.73;;;13.30;99.90;;;;;;5060874;28;20424;-80
2021/10/12 07:59:07;;;;;;;22.67;11.02;;;13.40;99.90;;;;;;5059313;28;20428;-79
2021/10/12 08:01:34;;;;;;;23.00;10.48;;;13.40;99.90;;;;;;5057666;28;20029;-79
2021/10/12 08:04:01;;;;;;;23.50;10.95;;;13.50;99.90;;;;;;5062331;28;20119;-78
2021/10/12 08:06:27;;;;;;;24.92;10.82;;;13.50;99.90;;;;;;5057593;28;20033;-79
2021/10/12 08:08:53;;;;;;;25.63;12.02;;;13.50;99.90;;;;;;5066893;28;20040;-79
2021/10/12 08:11:22;;;;;;;20.73;10.95;;;13.60;99.90;;;;;;5066376;28;20033;-79
2021/10/12 08:13:51;;;;;;;26.95;12.23;;;13.60;99.90;;;;;;5060422;28;20549;-78
2021/10/12 08:16:19;;;;;;;23.38;11.38;;;13.60;99.90;;;;;;5067132;28;20078;-79
2021/10/12 08:18:46;;;;;;;19.95;11.48;;;13.60;99.90;;;;;;5060958;28;20107;-80
2021/10/12 08:21:12;;;;;;;21.30;11.23;;;13.70;99.90;;;;;;5066199;28;21135;-78
2021/10/12 08:23:37;;;;;;;26.02;10.82;;;13.60;99.90;;;;;;5069597;28;20223;-80
2021/10/12 08:26:03;;;;;;;25.67;11.27;;;13.60;99.90;;;;;;5073034;28;20112;-78
2021/10/12 08:28:29;;;;;;;22.70;10.98;;;13.70;99.90;;;;;;5063914;28;20529;-78
2021/10/12 08:30:54;;;;;;;31.63;13.05;;;13.70;99.90;;;;;;5062908;28;20032;-79
2021/10/12 08:33:20;;;;;;;21.67;11.93;;;13.70;99.90;;;;;;5064605;28;20503;-77
2021/10/12 08:35:46;;;;;;;25.08;12.60;;;13.70;99.90;;;;;;5060505;28;20085;-74
2021/10/12 08:38:16;;;;;;;27.45;10.85;;;13.70;99.90;;;;;;5065344;28;20035;-74
2021/10/12 08:40:44;;;;;;;27.40;11.77;;;13.60;99.90;;;;;;5068162;28;20476;-75
2021/10/12 08:43:09;;;;;;;32.55;11.43;;;13.70;99.90;;;;;;5073158;28;20021;-72
2021/10/12 08:45:37;;;;;;;25.30;12.50;;;13.70;99.90;;;;;;5066995;28;20021;-77
2021/10/12 08:48:05;;;;;;;31.65;12.18;;;13.70;99.90;;;;;;5066198;28;20027;-79
2021/10/12 08:50:31;;;;;;;25.13;12.07;;;13.70;99.90;;;;;;5075947;28;20116;-73
2021/10/12 08:52:56;;;;;;;27.23;11.38;;;13.60;99.90;;;;;;5061425;28;20115;-72
2021/10/12 08:55:22;;;;;;;34.78;13.65;;;13.70;99.90;;;;;;5068384;28;20033;-80
2021/10/12 08:57:48;;;;;;;22.77;11.60;;;13.70;99.90;;;;;;5065048;28;20051;-80
2021/10/12 09:00:16;;;;;;;31.27;12.10;;;13.60;99.90;;;;;;5069025;28;20086;-78
2021/10/12 09:06:03;;;;;;;22.63;13.52;;;13.60;99.90;;;;;;5069748;28;20370;-77
2021/10/12 09:08:39;;;;;;;27.27;11.93;;;13.70;99.90;;;;;;5067373;28;20400;-77
2021/10/12 09:11:21;;;;;;;30.83;12.85;;;13.70;99.90;;;;;;5064570;28;20433;-75
2021/10/12 09:13:49;;;;;;;28.85;13.25;;;13.80;99.90;;;;;;5069716;28;20013;-75
2021/10/12 09:16:16;;;;;;;27.25;12.00;;;13.80;99.90;;;;;;5065934;28;20029;-76
2021/10/12 09:18:55;;;;;;;25.58;12.68;;;13.80;99.90;;;;;;5064253;28;20031;-77
2021/10/12 09:21:23;;;;;;;26.67;12.48;;;13.80;99.90;;;;;;5064294;28;20118;-75
2021/10/12 09:23:49;;;;;;;27.23;13.30;;;13.90;99.90;;;;;;5060996;28;20036;-83
2021/10/12 09:26:36;;;;;;;24.17;12.38;;;13.90;99.90;;;;;;5072807;28;20359;-78
2021/10/12 09:29:16;;;;;;;25.83;12.07;;;13.90;99.90;;;;;;5067565;28;20016;-79
2021/10/12 09:31:46;;;;;;;26.50;13.50;;;13.90;99.90;;;;;;5068890;28;20507;-77
2021/10/12 09:34:14;;;;;;;22.58;12.95;;;13.90;99.90;;;;;;5072197;28;20017;-77
2021/10/12 09:36:40;;;;;;;27.67;12.90;;;13.90;99.90;;;;;;5076099;28;20173;-80
2021/10/12 09:39:08;;;;;;;31.83;15.05;;;14.00;99.90;;;;;;5068567;28;20036;-76
2021/10/12 09:41:35;;;;;;;33.70;15.10;;;14.00;99.90;;;;;;5063385;28;20098;-80
2021/10/12 09:44:18;;;;;;;27.98;14.48;;;14.00;99.90;;;;;;5071491;28;20016;-79
2021/10/12 09:46:46;;;;;;;26.40;14.65;;;14.10;99.90;;;;;;5062784;28;20024;-79
2021/10/12 09:49:14;;;;;;;25.98;14.55;;;14.00;99.90;;;;;;5072485;28;20024;-74
2021/10/12 09:51:58;;;;;;;30.92;15.35;;;14.10;99.90;;;;;;5063093;28;20032;-79
2021/10/12 09:54:29;;;;;;;26.73;13.95;;;14.10;99.90;;;;;;5058108;28;20410;-82
2021/10/12 09:56:57;;;;;;;29.35;15.20;;;14.10;99.90;;;;;;5066071;28;20028;-82
2021/10/12 09:59:22;;;;;;;27.95;15.25;;;14.20;99.90;;;;;;5065987;28;20028;-74
2021/10/12 10:01:48;;;;;;;26.33;14.40;;;14.20;99.90;;;;;;5062995;28;20044;-78
2021/10/12 10:04:19;;;;;;;30.23;14.57;;;14.20;99.90;;;;;;5059212;28;20043;-80
2021/10/12 10:06:49;;;;;;;23.80;14.60;;;14.20;99.90;;;;;;5066087;28;20366;-80
2021/10/12 10:09:18;;;;;;;21.50;13.35;;;14.20;99.90;;;;;;5065553;28;20020;-75
2021/10/12 10:11:44;;;;;;;20.70;13.70;;;14.30;99.90;;;;;;5062971;28;20036;-81
2021/10/12 10:14:12;;;;;;;24.25;13.05;;;14.30;99.90;;;;;;5067797;28;20028;-81
2021/10/12 10:16:40;;;;;;;23.52;13.70;;;14.30;99.90;;;;;;5071665;28;20029;-77
2021/10/12 10:19:08;;;;;;;24.58;12.68;;;14.40;99.90;;;;;;5068553;28;20020;-79
2021/10/12 10:21:46;;;;;;;20.42;13.60;;;14.50;99.90;;;;;;5061532;28;20025;-80
2021/10/12 10:24:24;;;;;;;17.05;13.20;;;14.50;99.90;;;;;;5065607;28;20025;-79
2021/10/12 10:26:51;;;;;;;24.73;14.40;;;14.60;99.90;;;;;;5064684;28;20033;-79
2021/10/12 10:29:22;;;;;;;23.77;15.43;;;14.60;99.90;;;;;;5059950;28;20052;-79
2021/10/12 10:31:57;;;;;;;18.85;12.43;;;14.60;99.90;;;;;;5071303;28;20036;-78
2021/10/12 10:34:31;;;;;;;23.83;14.88;;;14.60;99.90;;;;;;5077592;28;20020;-79
2021/10/12 10:37:15;;;;;;;25.83;13.60;;;14.60;99.90;;;;;;5075311;28;20021;-79
2021/10/12 10:39:49;;;;;;;23.52;13.25;;;14.60;99.90;;;;;;5069880;28;20040;-78
2021/10/12 10:42:27;;;;;;;19.58;13.13;;;14.80;99.90;;;;;;5064639;28;20025;-78
2021/10/12 10:45:00;;;;;;;23.63;13.02;;;14.90;99.90;;;;;;5073135;28;20024;-79
2021/10/12 10:47:41;;;;;;;22.00;12.70;;;14.90;99.90;;;;;;5068367;28;20025;-77
2021/10/12 10:50:24;;;;;;;21.20;12.02;;;15.10;99.90;;;;;;5070972;28;20306;-78
2021/10/12 10:52:52;;;;;;;23.00;11.50;;;15.10;99.90;;;;;;5064120;28;20028;-78
2021/10/12 10:55:28;;;;;;;17.48;11.57;;;15.20;99.90;;;;;;5072799;28;20036;-79
2021/10/12 10:58:06;;;;;;;21.23;11.68;;;15.20;99.90;;;;;;5068076;28;20036;-81
2021/10/12 11:00:47;;;;;;;20.30;10.70;;;15.30;99.90;;;;;;5073672;28;20029;-78
2021/10/12 11:03:41;;;;;;;16.98;10.55;;;15.10;99.90;;;;;;5060494;28;20032;-79
2021/10/12 11:06:17;;;;;;;15.73;10.35;;;15.20;99.90;;;;;;5068663;28;20467;-79
2021/10/12 11:09:03;;;;;;;18.58;10.02;;;15.20;99.90;;;;;;5075485;28;20043;-79
2021/10/12 11:11:33;;;;;;;20.35;10.18;;;15.20;99.90;;;;;;5080610;28;20400;-82
2021/10/12 11:14:00;;;;;;;16.42;10.05;;;15.20;99.90;;;;;;5079512;28;20039;-80
2021/10/12 11:16:33;;;;;;;18.15;10.07;;;15.20;99.90;;;;;;5067903;28;20104;-83
2021/10/12 11:19:00;;;;;;;16.27;10.48;;;15.10;99.90;;;;;;5071789;28;20119;-74
2021/10/12 11:21:26;;;;;;;20.13;10.80;;;15.00;99.90;;;;;;5081821;28;20423;-76
2021/10/12 11:24:00;;;;;;;16.98;11.40;;;15.00;99.90;;;;;;5080176;28;20096;-75
2021/10/12 11:26:27;;;;;;;17.10;12.77;;;14.90;99.90;;;;;;5077332;28;20022;-75
2021/10/12 11:28:59;;;;;;;19.27;12.82;;;14.90;99.90;;;;;;5075652;28;20050;-79
2021/10/12 11:31:27;;;;;;;22.08;11.88;;;14.90;99.90;;;;;;5075125;28;20041;-78
2021/10/12 11:33:58;;;;;;;17.10;12.10;;;14.80;99.90;;;;;;5076328;28;20420;-82
2021/10/12 11:36:27;;;;;;;21.67;12.57;;;14.80;99.90;;;;;;5079254;28;20017;-81
2021/10/12 11:38:53;;;;;;;22.38;11.55;;;14.80;99.90;;;;;;5066429;28;20103;-81
2021/10/12 11:41:27;;;;;;;18.25;9.65;;;14.80;99.90;;;;;;5072971;28;20125;-77
2021/10/12 11:43:56;;;;;;;18.45;12.40;;;14.80;99.90;;;;;;5071815;28;20590;-82
2021/10/12 11:46:24;;;;;;;16.70;11.48;;;14.80;99.90;;;;;;5071993;28;20016;-79
2021/10/12 11:48:50;;;;;;;11.77;9.18;;;14.80;99.90;;;;;;5071666;28;20046;-86
2021/10/12 11:51:22;;;;;;;7.63;5.82;;;14.80;99.90;;;;;;5079428;28;20032;-74
2021/10/12 11:53:50;;;;;;;9.07;4.83;;;14.70;99.90;;;;;;5068796;28;20041;-75
2021/10/12 11:56:18;;;;;;;6.20;4.63;;;14.70;99.90;;;;;;5070224;28;20487;-76
2021/10/12 11:58:43;;;;;;;5.00;4.03;;;14.70;99.90;;;;;;5066097;28;20049;-79
2021/10/12 12:01:14;;;;;;;7.78;3.53;;;14.60;99.90;;;;;;5067756;28;20116;-75
2021/10/12 12:03:41;;;;;;;8.65;5.00;;;14.70;99.90;;;;;;5070166;28;20036;-76
2021/10/12 12:06:07;;;;;;;7.22;4.10;;;14.80;99.90;;;;;;5061292;28;20025;-75
2021/10/12 12:08:37;;;;;;;7.88;3.90;;;14.80;99.90;;;;;;5068192;28;20133;-75
2021/10/12 12:11:03;;;;;;;6.70;3.53;;;14.80;99.90;;;;;;5065048;28;20111;-74
2021/10/12 12:13:30;;;;;;;4.90;2.53;;;14.80;99.90;;;;;;5067682;28;20045;-74
2021/10/12 12:15:57;;;;;;;5.85;2.80;;;14.80;99.90;;;;;;5068225;28;20029;-74
2021/10/12 12:18:24;;;;;;;4.72;2.17;;;14.80;99.90;;;;;;5066036;28;20071;-75
2021/10/12 12:21:02;;;;;;;3.38;2.03;;;14.80;99.90;;;;;;5064733;28;20159;-75
2021/10/12 12:23:37;;;;;;;6.07;2.10;;;14.80;99.90;;;;;;5063898;28;20013;-76
2021/10/12 12:26:08;;;;;;;3.20;1.80;;;14.80;99.90;;;;;;5059751;28;20045;-76
2021/10/12 12:28:34;;;;;;;2.95;1.83;;;14.80;99.90;;;;;;5063902;28;20027;-76
2021/10/12 12:31:26;;;;;;;3.10;1.70;;;14.90;99.90;;;;;;5064159;28;20389;-75
2021/10/12 12:33:55;;;;;;;4.35;2.30;;;15.00;99.90;;;;;;5069980;28;20027;-76
2021/10/12 12:36:32;;;;;;;5.50;2.20;;;15.00;99.90;;;;;;5069079;28;20017;-74
2021/10/12 12:39:09;;;;;;;3.03;2.28;;;15.10;99.90;;;;;;5061357;28;20059;-73